Time;durP1;ratioP1;P1;durP2;ratioP2;P2;SDS_P1;SDS_P2;PMS_P1;PMS_P2;Temp;Humidity;BMP_temperature;BMP_pressure;BME280_temperature;BME280_humidity;BME280_pressure;Samples;Min_cycle;Max_cycle;Signal;HPM_P1;HPM_P2
2023/08/15 00:02:14;;;;;;;4.90;3.22;;;21.70;99.90;;;;;;5070608;28;20033;-84
2023/08/15 00:04:39;;;;;;;7.13;3.38;;;21.70;99.90;;;;;;5073835;28;20020;-85
2023/08/15 00:07:05;;;;;;;6.18;3.47;;;21.70;99.90;;;;;;5073485;28;20186;-85
2023/08/15 00:09:33;;;;;;;5.63;3.47;;;21.70;99.90;;;;;;5069567;28;20116;-85
2023/08/15 00:11:59;;;;;;;4.78;3.45;;;21.60;99.90;;;;;;5108331;27;20028;-84
2023/08/15 00:14:26;;;;;;;4.60;3.20;;;21.60;99.90;;;;;;5093014;28;20123;-84
2023/08/15 00:16:52;;;;;;;6.40;3.80;;;21.60;99.90;;;;;;5094148;28;20032;-84
2023/08/15 00:19:17;;;;;;;3.70;3.28;;;21.60;99.90;;;;;;5093004;28;20031;-85
2023/08/15 00:21:43;;;;;;;4.90;3.80;;;21.60;99.90;;;;;;5081657;28;20033;-85
2023/08/15 00:24:09;;;;;;;5.78;3.53;;;21.60;99.90;;;;;;5072236;28;20054;-85
2023/08/15 00:26:34;;;;;;;6.10;3.95;;;21.60;99.90;;;;;;5072070;28;20025;-83
2023/08/15 00:29:00;;;;;;;4.40;3.40;;;21.60;99.90;;;;;;5036120;28;20021;-85
2023/08/15 00:31:26;;;;;;;5.15;3.22;;;21.60;99.90;;;;;;5083575;28;20016;-84
2023/08/15 00:33:51;;;;;;;8.23;3.97;;;21.50;99.90;;;;;;5089558;28;20025;-85
2023/08/15 00:36:17;;;;;;;4.40;3.05;;;21.50;99.90;;;;;;5106325;28;20473;-83
2023/08/15 00:38:43;;;;;;;5.07;3.42;;;21.50;99.90;;;;;;5096626;28;20119;-85
2023/08/15 00:41:09;;;;;;;4.82;3.67;;;21.50;99.90;;;;;;5091560;28;20482;-85
2023/08/15 00:43:35;;;;;;;5.95;3.78;;;21.50;99.90;;;;;;5076841;28;20028;-85
2023/08/15 00:46:05;;;;;;;4.85;3.67;;;21.50;99.90;;;;;;5106512;28;20056;-85
2023/08/15 00:48:32;;;;;;;5.05;3.78;;;21.50;99.90;;;;;;5074104;28;20020;-85
2023/08/15 00:51:00;;;;;;;4.00;3.42;;;21.50;99.90;;;;;;5089108;28;20063;-85
2023/08/15 00:53:28;;;;;;;5.22;3.80;;;21.50;99.90;;;;;;5073986;28;20023;-85
2023/08/15 00:55:57;;;;;;;6.30;4.10;;;21.50;99.90;;;;;;5072848;28;20067;-85
2023/08/15 00:58:23;;;;;;;6.65;4.07;;;21.50;99.90;;;;;;5073753;28;20020;-85
2023/08/15 01:00:50;;;;;;;6.75;4.40;;;21.40;99.90;;;;;;5087869;28;20456;-84
2023/08/15 01:03:16;;;;;;;7.70;4.38;;;21.40;99.90;;;;;;5084616;28;20086;-85
2023/08/15 01:05:43;;;;;;;6.13;4.03;;;21.40;99.90;;;;;;5052138;28;20457;-85
2023/08/15 01:08:08;;;;;;;5.20;4.15;;;21.40;99.90;;;;;;5129748;28;20020;-85
2023/08/15 01:10:34;;;;;;;6.70;4.30;;;21.40;99.90;;;;;;5098491;28;20035;-84
2023/08/15 01:13:12;;;;;;;6.68;3.92;;;21.40;99.90;;;;;;5109497;28;20019;-83
2023/08/15 01:15:45;;;;;;;7.55;4.18;;;21.40;99.90;;;;;;5079174;28;20099;-85
2023/08/15 01:18:16;;;;;;;6.13;4.32;;;21.40;99.90;;;;;;5075587;28;20085;-85
2023/08/15 01:20:42;;;;;;;5.55;4.10;;;21.40;99.90;;;;;;5082912;28;20024;-85
2023/08/15 01:23:12;;;;;;;4.38;3.78;;;21.30;99.90;;;;;;5088668;28;20467;-85
2023/08/15 01:25:42;;;;;;;6.03;3.88;;;21.30;99.90;;;;;;5079112;28;20019;-85
2023/08/15 01:28:15;;;;;;;5.70;4.10;;;21.30;99.90;;;;;;5093132;28;20028;-85
2023/08/15 01:30:48;;;;;;;4.70;3.70;;;21.30;99.90;;;;;;5092580;28;20431;-85
2023/08/15 01:33:29;;;;;;;4.13;3.72;;;21.30;99.90;;;;;;5093805;28;20517;-85
2023/08/15 01:36:10;;;;;;;4.75;3.30;;;21.30;99.90;;;;;;5086655;28;20031;-85
2023/08/15 01:38:41;;;;;;;;;;;21.30;99.90;;;;;;5059837;28;20111;-85
2023/08/15 01:41:09;;;;;;;4.93;3.67;;;21.30;99.90;;;;;;5080514;28;19911;-85
2023/08/15 01:43:36;;;;;;;6.93;3.97;;;21.30;99.90;;;;;;5056009;28;20445;-85
2023/08/15 01:46:03;;;;;;;4.30;3.60;;;21.20;99.90;;;;;;5087367;28;20448;-85
2023/08/15 01:48:29;;;;;;;5.35;3.60;;;21.30;99.90;;;;;;5066773;28;20029;-84
2023/08/15 01:50:54;;;;;;;5.55;3.60;;;21.30;99.90;;;;;;5057211;28;20028;-85
2023/08/15 01:53:20;;;;;;;4.88;3.45;;;21.20;99.90;;;;;;5072563;28;20025;-85
2023/08/15 01:55:46;;;;;;;5.35;3.72;;;21.30;99.90;;;;;;5063640;28;20040;-85
2023/08/15 01:58:11;;;;;;;5.38;3.88;;;21.30;99.90;;;;;;5075317;28;20036;-84
2023/08/15 02:00:37;;;;;;;5.20;3.70;;;21.30;99.90;;;;;;5098392;27;20103;-85
2023/08/15 02:03:03;;;;;;;5.25;3.95;;;21.30;99.90;;;;;;5092298;28;20039;-85
2023/08/15 02:05:29;;;;;;;5.70;4.40;;;21.30;99.90;;;;;;5107657;28;20035;-84
2023/08/15 02:07:54;;;;;;;6.53;4.05;;;21.30;99.90;;;;;;5075027;28;20052;-84
2023/08/15 02:10:22;;;;;;;5.78;4.10;;;21.40;99.90;;;;;;5109070;28;20028;-84
2023/08/15 02:12:48;;;;;;;5.65;4.00;;;21.40;99.90;;;;;;5091412;28;20460;-84
2023/08/15 02:15:14;;;;;;;6.78;4.32;;;21.40;99.90;;;;;;5057058;28;20035;-84
2023/08/15 02:17:40;;;;;;;8.23;4.32;;;21.40;99.90;;;;;;5090943;28;20028;-85
2023/08/15 02:20:06;;;;;;;6.85;5.00;;;21.50;99.90;;;;;;5084731;28;20081;-85
2023/08/15 02:22:32;;;;;;;6.13;4.50;;;21.50;99.90;;;;;;5070712;28;20013;-85
2023/08/15 02:24:58;;;;;;;6.28;4.32;;;21.50;99.90;;;;;;5072497;28;20418;-85
2023/08/15 02:27:23;;;;;;;7.03;4.82;;;21.50;99.90;;;;;;5069906;28;20028;-84
2023/08/15 02:29:51;;;;;;;6.55;4.47;;;21.50;99.90;;;;;;5054188;28;20060;-85
2023/08/15 02:32:18;;;;;;;8.27;4.70;;;21.50;99.90;;;;;;5075416;28;20107;-85
2023/08/15 02:34:43;;;;;;;7.82;4.50;;;21.60;99.90;;;;;;5074531;28;20415;-85
2023/08/15 02:37:09;;;;;;;7.88;4.72;;;21.60;99.90;;;;;;5075860;28;20021;-84
2023/08/15 02:39:34;;;;;;;6.95;4.10;;;21.60;99.90;;;;;;5057945;28;20123;-85
2023/08/15 02:42:00;;;;;;;8.75;4.85;;;21.60;99.90;;;;;;5093572;28;20020;-85
2023/08/15 02:44:26;;;;;;;7.13;4.38;;;21.50;99.90;;;;;;5078203;28;20031;-85
2023/08/15 02:46:51;;;;;;;7.60;4.30;;;21.50;99.90;;;;;;5090651;28;20041;-85
2023/08/15 02:49:18;;;;;;;6.57;4.28;;;21.50;99.90;;;;;;5058140;28;20545;-85
2023/08/15 02:51:43;;;;;;;6.05;3.83;;;21.50;99.90;;;;;;5075412;28;20024;-84
2023/08/15 02:54:09;;;;;;;6.93;4.28;;;21.50;99.90;;;;;;5058233;28;20044;-84
2023/08/15 02:56:35;;;;;;;5.65;3.97;;;21.50;99.90;;;;;;5057888;28;20058;-85
2023/08/15 02:59:00;;;;;;;8.02;4.70;;;21.50;99.90;;;;;;5075261;28;20025;-85
2023/08/15 03:01:26;;;;;;;8.48;4.53;;;21.50;99.90;;;;;;5058813;28;20421;-85
2023/08/15 03:03:52;;;;;;;7.63;4.22;;;21.50;99.90;;;;;;5060188;28;20024;-85
2023/08/15 03:06:17;;;;;;;7.03;4.30;;;21.40;99.90;;;;;;5125584;28;20050;-85
2023/08/15 03:08:43;;;;;;;8.10;3.90;;;21.40;99.90;;;;;;5081087;28;20024;-83
2023/08/15 03:11:09;;;;;;;9.15;4.63;;;21.40;99.90;;;;;;5080825;28;20009;-85
2023/08/15 03:13:34;;;;;;;10.00;4.70;;;21.40;99.90;;;;;;5080349;28;20028;-85
2023/08/15 03:16:00;;;;;;;9.77;4.20;;;21.40;99.90;;;;;;5096022;28;20044;-84
2023/08/15 03:18:26;;;;;;;7.38;4.45;;;21.30;99.90;;;;;;5067180;28;20054;-85
2023/08/15 03:21:09;;;;;;;6.90;3.97;;;21.40;99.90;;;;;;5072691;28;20071;-85
2023/08/15 03:23:37;;;;;;;8.80;4.22;;;21.30;99.90;;;;;;5061888;28;20333;-85
2023/08/15 03:26:04;;;;;;;7.75;4.13;;;21.30;99.90;;;;;;5090594;28;20046;-85
2023/08/15 03:28:30;;;;;;;7.00;4.10;;;21.30;99.90;;;;;;5101191;28;20097;-85
2023/08/15 03:30:56;;;;;;;7.82;4.30;;;21.20;99.90;;;;;;5057809;28;20389;-85
2023/08/15 03:33:23;;;;;;;6.22;3.90;;;21.20;99.90;;;;;;5055687;28;20544;-85
2023/08/15 03:35:50;;;;;;;7.20;4.45;;;21.20;99.90;;;;;;5087093;28;20066;-85
2023/08/15 03:38:19;;;;;;;5.90;3.58;;;21.10;99.90;;;;;;5053789;28;20025;-84
2023/08/15 03:40:46;;;;;;;6.60;3.80;;;21.10;99.90;;;;;;5099887;28;20024;-85
2023/08/15 03:43:12;;;;;;;6.72;4.13;;;21.10;99.90;;;;;;5057017;28;20021;-85
2023/08/15 03:45:38;;;;;;;5.97;3.72;;;21.10;99.90;;;;;;5073603;28;20107;-84
2023/08/15 03:48:06;;;;;;;7.82;3.75;;;21.00;99.90;;;;;;5074452;28;20409;-85
2023/08/15 03:50:32;;;;;;;7.35;4.00;;;21.00;99.90;;;;;;5072779;28;20027;-84
2023/08/15 03:52:58;;;;;;;6.93;4.32;;;21.00;99.90;;;;;;5073232;28;20021;-84
2023/08/15 03:55:24;;;;;;;7.28;3.63;;;21.00;99.90;;;;;;5084802;28;20028;-85
2023/08/15 03:57:49;;;;;;;9.32;4.10;;;21.00;99.90;;;;;;5069705;28;20102;-85
2023/08/15 04:00:18;;;;;;;6.78;3.72;;;20.90;99.90;;;;;;5070931;28;20564;-84
2023/08/15 04:02:44;;;;;;;7.68;4.00;;;20.90;99.90;;;;;;5055499;28;20060;-84
2023/08/15 04:05:11;;;;;;;7.45;3.92;;;20.90;99.90;;;;;;5054410;28;20017;-84
2023/08/15 04:07:37;;;;;;;5.78;3.67;;;20.80;99.90;;;;;;5057437;28;20404;-85
2023/08/15 04:10:06;;;;;;;6.15;3.70;;;20.80;99.90;;;;;;5093041;28;20026;-85
2023/08/15 04:12:33;;;;;;;11.35;4.30;;;20.80;99.90;;;;;;5073324;28;20017;-84
2023/08/15 04:15:00;;;;;;;7.75;3.70;;;20.70;99.90;;;;;;5089572;28;20024;-85
2023/08/15 04:17:26;;;;;;;7.82;3.70;;;20.70;99.90;;;;;;5070488;28;20033;-85
2023/08/15 04:19:52;;;;;;;7.35;3.80;;;20.70;99.90;;;;;;5086042;28;20476;-84
2023/08/15 04:22:17;;;;;;;5.07;3.35;;;20.70;99.90;;;;;;5125300;27;20027;-84
2023/08/15 04:24:43;;;;;;;7.15;3.40;;;20.70;99.90;;;;;;5092590;28;20106;-84
2023/08/15 04:27:09;;;;;;;8.85;3.75;;;20.60;99.90;;;;;;5076321;28;20372;-84
2023/08/15 04:29:34;;;;;;;6.32;3.72;;;20.60;99.90;;;;;;5073429;28;20035;-84
2023/08/15 04:32:00;;;;;;;8.80;3.67;;;20.50;99.90;;;;;;5069038;28;20024;-83
2023/08/15 04:34:26;;;;;;;7.75;3.72;;;20.50;99.90;;;;;;5077084;28;20376;-84
2023/08/15 04:36:51;;;;;;;7.13;3.25;;;20.40;99.90;;;;;;5063141;28;20070;-84
2023/08/15 04:39:24;;;;;;;9.05;3.85;;;20.40;99.90;;;;;;5063420;28;20423;-83
2023/08/15 04:41:50;;;;;;;5.72;2.88;;;20.40;99.90;;;;;;5053105;28;20020;-84
2023/08/15 04:44:15;;;;;;;6.10;3.10;;;20.30;99.90;;;;;;5072588;28;20368;-83
2023/08/15 04:46:41;;;;;;;6.55;3.20;;;20.30;99.90;;;;;;5063139;28;20024;-83
2023/08/15 04:49:07;;;;;;;5.40;3.22;;;20.30;99.90;;;;;;5064692;28;20342;-85
2023/08/15 04:51:33;;;;;;;7.95;3.22;;;20.30;99.90;;;;;;5072507;28;20464;-85
2023/08/15 04:53:58;;;;;;;5.53;2.65;;;20.20;99.90;;;;;;5055115;28;20027;-84
2023/08/15 04:56:24;;;;;;;6.80;2.92;;;20.20;99.90;;;;;;5039521;28;20021;-84
2023/08/15 04:58:50;;;;;;;5.45;2.90;;;20.20;99.90;;;;;;5072674;28;20033;-84
2023/08/15 05:01:16;;;;;;;7.18;3.30;;;20.20;99.90;;;;;;5052634;28;20025;-84
2023/08/15 05:03:42;;;;;;;7.03;3.05;;;20.10;99.90;;;;;;5058150;28;20032;-84
2023/08/15 05:06:08;;;;;;;5.75;2.95;;;20.10;99.90;;;;;;5093699;28;20052;-83
2023/08/15 05:08:33;;;;;;;5.75;2.92;;;20.10;99.90;;;;;;5060860;28;20028;-81
2023/08/15 05:11:00;;;;;;;5.55;2.92;;;20.10;99.90;;;;;;5087549;28;20036;-82
2023/08/15 05:13:26;;;;;;;7.55;3.55;;;20.10;99.90;;;;;;5123170;28;20071;-84
2023/08/15 05:15:52;;;;;;;7.60;3.42;;;20.00;99.90;;;;;;5076509;28;20025;-84
2023/08/15 05:18:19;;;;;;;9.75;3.20;;;20.00;99.90;;;;;;5084307;28;21575;-84
2023/08/15 05:20:48;;;;;;;8.18;3.65;;;20.00;99.90;;;;;;5077487;28;20046;-83
2023/08/15 05:23:17;;;;;;;7.05;3.38;;;20.00;99.90;;;;;;5069106;28;20044;-83
2023/08/15 05:25:43;;;;;;;8.75;3.17;;;20.00;99.90;;;;;;5075979;28;20091;-84
2023/08/15 05:28:10;;;;;;;7.97;3.33;;;19.90;99.90;;;;;;5092190;28;21588;-84
2023/08/15 05:30:36;;;;;;;5.88;3.25;;;19.90;99.90;;;;;;5061775;28;20024;-85
2023/08/15 05:33:02;;;;;;;7.80;3.42;;;20.00;99.90;;;;;;5065043;28;20017;-85
2023/08/15 05:35:28;;;;;;;10.93;3.05;;;19.90;99.90;;;;;;5083261;28;20035;-84
2023/08/15 05:37:54;;;;;;;5.35;3.28;;;19.90;99.90;;;;;;5092713;28;20039;-84
2023/08/15 05:40:23;;;;;;;7.00;3.30;;;19.90;99.90;;;;;;5075614;28;20012;-84
2023/08/15 05:42:49;;;;;;;6.18;3.10;;;19.90;99.90;;;;;;5079652;28;20051;-84
2023/08/15 05:45:15;;;;;;;5.93;2.85;;;19.90;99.90;;;;;;5057243;28;20029;-84
2023/08/15 05:47:40;;;;;;;7.32;2.90;;;19.90;99.90;;;;;;5076489;28;20020;-85
2023/08/15 05:50:07;;;;;;;6.85;3.60;;;20.00;99.90;;;;;;5043334;28;20017;-84
2023/08/15 05:52:33;;;;;;;6.80;3.15;;;19.90;99.90;;;;;;5078330;28;20048;-84
2023/08/15 05:54:59;;;;;;;5.35;2.92;;;20.00;99.90;;;;;;5085151;28;20024;-84
2023/08/15 05:57:24;;;;;;;6.22;3.08;;;20.00;99.90;;;;;;5088344;28;20061;-83
2023/08/15 05:59:52;;;;;;;7.15;3.30;;;20.00;99.90;;;;;;5100807;28;20047;-84
2023/08/15 06:02:19;;;;;;;6.32;2.90;;;20.10;99.90;;;;;;5084532;28;20024;-84
2023/08/15 06:04:45;;;;;;;6.80;3.20;;;20.10;99.90;;;;;;5068942;28;20025;-84
2023/08/15 06:07:12;;;;;;;7.90;3.20;;;20.10;99.90;;;;;;5064350;28;20045;-84
2023/08/15 06:09:38;;;;;;;6.05;2.90;;;20.10;99.90;;;;;;5074483;28;20051;-84
2023/08/15 06:12:04;;;;;;;7.68;3.03;;;20.20;99.90;;;;;;5082424;28;20024;-84
2023/08/15 06:14:30;;;;;;;6.20;2.88;;;20.20;99.90;;;;;;5072294;28;20101;-84
2023/08/15 06:16:56;;;;;;;8.32;3.30;;;20.20;99.90;;;;;;5094818;28;20445;-84
2023/08/15 06:19:22;;;;;;;7.18;3.45;;;20.20;99.90;;;;;;5076956;28;20077;-84
2023/08/15 06:21:47;;;;;;;7.78;3.47;;;20.20;99.90;;;;;;5107286;28;20481;-84
2023/08/15 06:24:13;;;;;;;5.93;3.05;;;20.30;99.90;;;;;;5102330;28;20028;-84
2023/08/15 06:26:39;;;;;;;5.70;3.17;;;20.30;99.90;;;;;;5075834;28;20025;-85
2023/08/15 06:29:05;;;;;;;7.47;3.08;;;20.30;99.90;;;;;;5105482;28;20448;-85
2023/08/15 06:31:32;;;;;;;6.60;3.10;;;20.30;99.90;;;;;;5095465;28;20012;-84
2023/08/15 06:33:59;;;;;;;6.35;3.05;;;20.40;99.90;;;;;;5095446;28;20024;-84
2023/08/15 06:36:25;;;;;;;8.80;3.05;;;20.40;99.90;;;;;;5095781;28;20032;-85
2023/08/15 06:38:51;;;;;;;6.57;3.08;;;20.50;99.90;;;;;;5078550;28;20372;-84
2023/08/15 06:41:17;;;;;;;5.82;2.80;;;20.50;99.90;;;;;;5078309;28;20055;-85
2023/08/15 06:43:46;;;;;;;6.53;2.53;;;20.50;99.90;;;;;;5078389;28;20024;-84
2023/08/15 06:46:12;;;;;;;4.38;2.65;;;20.50;99.90;;;;;;5095045;28;20371;-85
2023/08/15 06:48:38;;;;;;;9.13;3.00;;;20.60;99.90;;;;;;5095506;28;20035;-84
2023/08/15 06:51:04;;;;;;;5.25;2.60;;;20.60;99.90;;;;;;5062799;28;20456;-84
2023/08/15 06:53:30;;;;;;;9.63;3.45;;;20.70;99.90;;;;;;5042429;28;20078;-85
2023/08/15 06:55:56;;;;;;;6.15;2.67;;;20.70;99.90;;;;;;5078766;28;20028;-85
2023/08/15 06:58:22;;;;;;;7.25;3.00;;;20.80;99.90;;;;;;5084289;28;20078;-84
2023/08/15 07:00:48;;;;;;;6.93;3.22;;;20.80;99.90;;;;;;5093607;28;20072;-85
2023/08/15 07:03:15;;;;;;;6.15;3.30;;;20.80;99.90;;;;;;5099236;28;20021;-83
2023/08/15 07:05:41;;;;;;;8.65;3.65;;;20.90;99.90;;;;;;5099286;28;20008;-82
2023/08/15 07:08:07;;;;;;;8.80;3.08;;;20.90;99.90;;;;;;5099017;28;20040;-83
2023/08/15 07:10:36;;;;;;;7.10;3.65;;;20.90;99.90;;;;;;5098691;28;20025;-85
2023/08/15 07:13:02;;;;;;;7.28;3.50;;;20.90;99.90;;;;;;5125519;28;20025;-85
2023/08/15 07:15:28;;;;;;;7.95;3.40;;;21.00;99.90;;;;;;5076057;28;20345;-85
2023/08/15 07:17:54;;;;;;;6.18;3.30;;;21.00;99.90;;;;;;5075113;28;20031;-85
2023/08/15 07:20:20;;;;;;;6.65;3.00;;;21.10;99.90;;;;;;5081307;28;20364;-86
2023/08/15 07:22:46;;;;;;;6.25;3.20;;;21.20;99.90;;;;;;5095241;28;20111;-84
2023/08/15 07:25:12;;;;;;;6.70;3.10;;;21.20;99.90;;;;;;5066890;28;20079;-85
2023/08/15 07:27:37;;;;;;;8.13;3.50;;;21.20;99.90;;;;;;5071503;28;20028;-85
2023/08/15 07:30:05;;;;;;;8.38;3.70;;;21.30;99.90;;;;;;5094009;28;20486;-85
2023/08/15 07:32:35;;;;;;;6.55;3.40;;;21.40;99.90;;;;;;5078123;28;20458;-85
2023/08/15 07:35:00;;;;;;;7.45;3.55;;;21.40;99.90;;;;;;5083167;28;20016;-84
2023/08/15 07:37:26;;;;;;;6.05;3.47;;;21.50;99.90;;;;;;5068307;28;20138;-85
2023/08/15 07:40:06;;;;;;;5.47;3.22;;;21.50;99.90;;;;;;5095425;28;20123;-85
2023/08/15 07:42:31;;;;;;;7.75;3.17;;;21.60;99.90;;;;;;5094469;28;20024;-85
2023/08/15 07:44:58;;;;;;;7.75;2.90;;;21.60;99.90;;;;;;5077256;28;20028;-85
2023/08/15 07:47:24;;;;;;;9.20;3.20;;;21.60;99.90;;;;;;5077082;28;20039;-85
2023/08/15 07:49:50;;;;;;;5.13;2.78;;;21.70;99.90;;;;;;5094583;28;20032;-85
2023/08/15 07:52:15;;;;;;;8.15;3.13;;;21.80;99.90;;;;;;5076919;28;20074;-86
2023/08/15 07:54:43;;;;;;;6.20;3.22;;;21.80;99.90;;;;;;5095461;28;20028;-85
2023/08/15 07:57:09;;;;;;;6.78;3.58;;;21.90;99.90;;;;;;5095010;28;20053;-84
2023/08/15 07:59:35;;;;;;;6.57;3.00;;;21.90;99.90;;;;;;5089211;28;20028;-85
2023/08/15 08:02:00;;;;;;;7.32;3.10;;;22.00;99.90;;;;;;5065215;28;20052;-85
2023/08/15 08:04:26;;;;;;;7.45;3.00;;;22.00;99.90;;;;;;5053179;28;20120;-84
2023/08/15 08:06:52;;;;;;;6.88;2.92;;;22.10;99.90;;;;;;5069386;28;20102;-85
2023/08/15 08:09:17;;;;;;;6.63;3.00;;;22.10;99.90;;;;;;5069832;28;20040;-84
2023/08/15 08:11:44;;;;;;;5.95;3.15;;;22.20;99.90;;;;;;5082051;28;20028;-84
2023/08/15 08:14:10;;;;;;;6.38;3.03;;;22.20;99.90;;;;;;5086581;28;20024;-84
2023/08/15 08:16:35;;;;;;;6.43;2.90;;;22.20;99.90;;;;;;5069665;28;20029;-84
2023/08/15 08:19:01;;;;;;;6.45;2.72;;;22.20;99.90;;;;;;5095482;28;20349;-85
2023/08/15 08:21:26;;;;;;;6.15;2.70;;;22.30;99.90;;;;;;5076367;28;20057;-85
2023/08/15 08:23:52;;;;;;;6.88;2.92;;;22.30;99.90;;;;;;5070201;28;20053;-85
2023/08/15 08:26:18;;;;;;;5.25;2.00;;;22.40;99.90;;;;;;5053282;28;20024;-85
2023/08/15 08:28:43;;;;;;;7.05;2.65;;;22.50;99.90;;;;;;5072294;28;20025;-84
2023/08/15 08:31:09;;;;;;;6.68;4.25;;;22.60;99.90;;;;;;5053060;28;20025;-84
2023/08/15 08:33:35;;;;;;;7.45;2.60;;;22.60;99.90;;;;;;5069567;28;20519;-84
2023/08/15 08:36:00;;;;;;;4.57;2.20;;;22.60;99.90;;;;;;5053268;28;20035;-84
2023/08/15 08:38:26;;;;;;;5.10;2.05;;;22.70;99.90;;;;;;5053002;28;20033;-84
2023/08/15 08:40:55;;;;;;;5.57;2.53;;;22.70;99.90;;;;;;5056467;28;20087;-85
2023/08/15 08:43:20;;;;;;;5.47;2.60;;;22.80;99.90;;;;;;5076624;28;20123;-84
2023/08/15 08:45:51;;;;;;;4.47;2.38;;;22.80;99.90;;;;;;5071038;28;20468;-84
2023/08/15 08:48:18;;;;;;;7.85;2.65;;;22.90;99.90;;;;;;5066450;28;20440;-84
2023/08/15 08:50:48;;;;;;;6.25;2.72;;;22.90;99.90;;;;;;5069364;28;20033;-84
2023/08/15 08:53:14;;;;;;;6.22;2.83;;;23.00;99.90;;;;;;5070217;28;20564;-84
2023/08/15 08:55:40;;;;;;;5.63;2.58;;;23.00;99.90;;;;;;5075709;28;20047;-84
2023/08/15 08:58:11;;;;;;;7.25;2.60;;;23.00;99.90;;;;;;5072979;28;20115;-85
2023/08/15 09:00:39;;;;;;;5.68;2.10;;;23.00;99.90;;;;;;5091012;28;20078;-84
2023/08/15 09:03:05;;;;;;;4.95;2.63;;;23.10;99.90;;;;;;5109145;28;20025;-84
2023/08/15 09:05:30;;;;;;;6.43;2.40;;;23.10;99.90;;;;;;5106750;28;20015;-84
2023/08/15 09:07:57;;;;;;;6.47;2.25;;;23.20;99.90;;;;;;5100785;28;20032;-84
2023/08/15 09:10:23;;;;;;;7.57;2.13;;;23.20;99.90;;;;;;5090875;28;20100;-82
2023/08/15 09:12:49;;;;;;;5.45;2.38;;;23.10;99.90;;;;;;5116837;28;20004;-85
2023/08/15 09:15:15;;;;;;;3.63;2.22;;;23.10;99.90;;;;;;5103050;28;20024;-84
2023/08/15 09:17:42;;;;;;;6.65;2.22;;;23.10;99.90;;;;;;5082173;28;20028;-84
2023/08/15 09:20:18;;;;;;;5.45;2.30;;;23.10;99.90;;;;;;5113662;28;20078;-85
2023/08/15 09:22:47;;;;;;;4.88;2.20;;;23.10;99.90;;;;;;5063412;28;20021;-84
2023/08/15 09:25:15;;;;;;;5.55;2.50;;;23.10;99.90;;;;;;5069404;28;20021;-83
2023/08/15 09:27:42;;;;;;;4.78;2.28;;;23.20;99.90;;;;;;5074065;28;20016;-84
2023/08/15 09:30:14;;;;;;;6.22;2.65;;;23.20;99.90;;;;;;5073375;28;20021;-85
2023/08/15 09:32:42;;;;;;;6.55;2.22;;;23.20;99.90;;;;;;5071061;28;20078;-85
2023/08/15 09:35:09;;;;;;;5.78;2.90;;;23.20;99.90;;;;;;5094315;28;20062;-85
2023/08/15 09:37:40;;;;;;;4.15;2.25;;;23.20;99.90;;;;;;5065217;28;20028;-85
2023/08/15 09:40:08;;;;;;;3.85;1.75;;;23.30;99.90;;;;;;5070116;28;20027;-86
2023/08/15 09:42:35;;;;;;;5.95;2.22;;;23.30;99.90;;;;;;5052580;28;20025;-85
2023/08/15 09:45:02;;;;;;;5.28;2.28;;;23.30;99.90;;;;;;5104133;28;20024;-86
2023/08/15 09:47:28;;;;;;;3.95;2.00;;;23.30;99.90;;;;;;5051755;28;20535;-85
2023/08/15 09:49:55;;;;;;;5.45;2.30;;;23.30;99.90;;;;;;5064017;28;20234;-85
2023/08/15 09:52:22;;;;;;;4.60;2.38;;;23.40;99.90;;;;;;5077729;28;20480;-86
2023/08/15 09:54:48;;;;;;;6.22;2.53;;;23.40;99.90;;;;;;5083364;28;20411;-87
2023/08/15 09:57:14;;;;;;;5.13;2.40;;;23.40;99.90;;;;;;5060377;28;20354;-85
2023/08/15 09:59:40;;;;;;;7.78;2.70;;;23.50;99.90;;;;;;5070617;28;20040;-85
2023/08/15 10:02:21;;;;;;;7.88;2.90;;;23.50;99.90;;;;;;5069337;28;20025;-86
2023/08/15 10:04:56;;;;;;;7.10;3.20;;;23.50;99.90;;;;;;5073913;28;20059;-85
2023/08/15 10:07:22;;;;;;;4.07;2.33;;;23.60;99.90;;;;;;5069020;28;20437;-84
2023/08/15 10:09:50;;;;;;;5.70;2.90;;;23.60;99.90;;;;;;5057453;28;20083;-86
2023/08/15 10:12:17;;;;;;;7.25;3.38;;;23.70;99.90;;;;;;5074786;28;20024;-86
2023/08/15 10:14:43;;;;;;;6.28;3.00;;;23.70;99.90;;;;;;5081915;28;20029;-86
2023/08/15 10:17:09;;;;;;;5.55;2.70;;;23.80;99.90;;;;;;5063911;28;20047;-86
2023/08/15 10:19:35;;;;;;;5.25;2.72;;;23.80;99.90;;;;;;5079132;28;20028;-85
2023/08/15 10:22:02;;;;;;;7.28;3.00;;;23.80;99.90;;;;;;5093308;28;20027;-85
2023/08/15 10:24:30;;;;;;;6.63;3.10;;;23.80;99.90;;;;;;5075174;28;20036;-85
2023/08/15 10:26:59;;;;;;;6.40;3.00;;;23.80;99.90;;;;;;5066545;28;20464;-86
2023/08/15 10:29:25;;;;;;;5.40;2.70;;;23.90;99.90;;;;;;5067218;28;20028;-85
2023/08/15 10:32:00;;;;;;;5.95;3.03;;;23.90;99.90;;;;;;5057979;28;20107;-85
2023/08/15 10:34:33;;;;;;;7.40;3.00;;;23.90;99.90;;;;;;5072512;28;20031;-86
2023/08/15 10:37:36;;;;;;;7.30;3.30;;;23.90;99.90;;;;;;5081832;28;20099;-86
2023/08/15 10:40:20;;;;;;;5.70;2.83;;;23.90;99.90;;;;;;5037525;28;20504;-85
2023/08/15 10:43:01;;;;;;;6.38;2.90;;;23.90;99.90;;;;;;5053864;28;20029;-85
2023/08/15 10:45:29;;;;;;;5.90;2.75;;;24.00;99.90;;;;;;5065549;28;20024;-86
2023/08/15 10:47:56;;;;;;;6.88;2.78;;;24.00;99.90;;;;;;5078601;28;20017;-85
2023/08/15 10:50:22;;;;;;;4.68;2.50;;;24.00;99.90;;;;;;5072765;28;20558;-84
2023/08/15 10:53:05;;;;;;;6.35;2.55;;;24.10;99.90;;;;;;5093881;28;20024;-86
2023/08/15 10:55:34;;;;;;;5.07;2.58;;;24.10;99.90;;;;;;5079836;28;20021;-86
2023/08/15 10:58:06;;;;;;;4.80;2.42;;;24.20;99.90;;;;;;5075031;28;20024;-85
2023/08/15 11:00:32;;;;;;;5.68;2.58;;;24.20;99.90;;;;;;5082102;28;20028;-86
2023/08/15 11:02:58;;;;;;;6.40;2.97;;;24.20;99.90;;;;;;5081373;28;20017;-85
2023/08/15 11:05:27;;;;;;;7.57;3.08;;;24.20;99.90;;;;;;5141070;27;20048;-83
2023/08/15 11:07:55;;;;;;;5.95;2.60;;;24.20;99.90;;;;;;5097880;28;20059;-85
2023/08/15 11:10:22;;;;;;;7.13;3.40;;;24.20;99.90;;;;;;5115120;28;20062;-85
2023/08/15 11:12:49;;;;;;;4.45;2.63;;;24.20;99.90;;;;;;5101026;28;20012;-82
2023/08/15 11:15:17;;;;;;;5.20;2.90;;;24.30;99.90;;;;;;5083645;28;20511;-85
2023/08/15 11:17:47;;;;;;;5.03;2.92;;;24.30;99.90;;;;;;5137605;27;20039;-85
2023/08/15 11:20:13;;;;;;;5.18;2.78;;;24.30;99.90;;;;;;5095130;28;20371;-86
2023/08/15 11:22:39;;;;;;;3.92;2.75;;;24.40;99.90;;;;;;5108266;28;20032;-86
2023/08/15 11:25:08;;;;;;;6.32;2.90;;;24.40;99.90;;;;;;5074466;28;20029;-84
2023/08/15 11:27:39;;;;;;;4.50;2.75;;;24.50;99.90;;;;;;5074224;28;20074;-85
2023/08/15 11:30:05;;;;;;;8.05;3.17;;;24.60;99.90;;;;;;5091595;28;20026;-86
2023/08/15 11:32:31;;;;;;;4.40;2.78;;;24.70;99.90;;;;;;5077384;28;20028;-86
2023/08/15 11:34:58;;;;;;;6.25;2.60;;;24.70;99.90;;;;;;5077240;28;20062;-86
2023/08/15 11:37:24;;;;;;;6.00;3.05;;;24.80;99.90;;;;;;5094423;28;20024;-86
2023/08/15 11:39:54;;;;;;;6.13;3.03;;;24.90;99.90;;;;;;5077026;28;20368;-86
2023/08/15 11:42:23;;;;;;;5.25;3.05;;;24.90;99.90;;;;;;5094151;28;20042;-86
2023/08/15 11:45:06;;;;;;;6.57;2.90;;;24.90;99.90;;;;;;5093734;28;20054;-86
2023/08/15 11:47:32;;;;;;;6.05;2.60;;;24.90;99.90;;;;;;5073286;28;20017;-86
2023/08/15 11:49:57;;;;;;;5.35;2.70;;;25.00;99.90;;;;;;5075188;28;20089;-87
2023/08/15 11:52:23;;;;;;;5.45;2.60;;;25.00;99.90;;;;;;5091210;28;20024;-86
2023/08/15 11:54:49;;;;;;;5.03;2.50;;;25.00;99.90;;;;;;5078886;28;20036;-87
2023/08/15 11:57:32;;;;;;;4.70;2.80;;;25.00;99.90;;;;;;5071692;28;20029;-86
2023/08/15 11:59:57;;;;;;;4.80;2.50;;;25.00;99.90;;;;;;5055059;28;20040;-87
2023/08/15 12:02:23;;;;;;;5.43;2.95;;;25.00;99.90;;;;;;5037353;28;20195;-87
2023/08/15 12:04:48;;;;;;;6.07;2.78;;;25.00;99.90;;;;;;5053512;28;20190;-88
2023/08/15 12:07:14;;;;;;;5.07;3.20;;;25.10;99.90;;;;;;5058527;28;20036;-87
2023/08/15 12:09:40;;;;;;;6.10;3.15;;;25.10;99.90;;;;;;5107076;28;20024;-87
2023/08/15 12:12:06;;;;;;;6.65;3.50;;;25.00;99.90;;;;;;5080648;28;20413;-88
2023/08/15 12:14:32;;;;;;;6.65;3.50;;;25.00;99.90;;;;;;5077010;28;20024;-86
2023/08/15 12:16:57;;;;;;;6.07;3.47;;;25.00;99.90;;;;;;5053198;28;20029;-87
2023/08/15 12:19:23;;;;;;;5.85;3.33;;;25.00;99.90;;;;;;5070014;28;20511;-86
2023/08/15 12:21:50;;;;;;;5.68;3.35;;;25.00;99.90;;;;;;5072562;28;20376;-85
2023/08/15 12:24:15;;;;;;;5.93;3.17;;;25.10;99.90;;;;;;5072015;28;20119;-86
2023/08/15 12:26:41;;;;;;;4.50;3.33;;;25.10;99.90;;;;;;5089579;28;20108;-86
2023/08/15 12:29:06;;;;;;;7.95;3.40;;;25.20;99.90;;;;;;5095980;28;20019;-85
2023/08/15 12:31:32;;;;;;;8.25;3.67;;;25.20;99.90;;;;;;5076183;28;20024;-85
2023/08/15 12:33:58;;;;;;;5.30;2.97;;;25.20;99.90;;;;;;5076200;28;20012;-86
2023/08/15 12:36:23;;;;;;;5.95;3.28;;;25.30;99.90;;;;;;5093082;28;20475;-84
2023/08/15 12:38:49;;;;;;;6.38;3.10;;;25.30;99.90;;;;;;5082774;28;20514;-92
2023/08/15 12:41:14;;;;;;;5.90;3.28;;;25.30;99.90;;;;;;5106235;28;20407;-86
2023/08/15 12:43:40;;;;;;;6.32;3.55;;;25.40;99.90;;;;;;5057077;28;20119;-88
2023/08/15 12:46:06;;;;;;;4.90;3.03;;;25.40;99.90;;;;;;5057373;28;20077;-88
2023/08/15 12:48:31;;;;;;;3.75;2.70;;;25.40;99.90;;;;;;5107791;28;20020;-87